Time;durP1;ratioP1;P1;durP2;ratioP2;P2;SDS_P1;SDS_P2;PMS_P1;PMS_P2;Temp;Humidity;BMP_temperature;BMP_pressure;BME280_temperature;BME280_humidity;BME280_pressure;Samples;Min_cycle;Max_cycle;Signal;HPM_P1;HPM_P2
2023/04/05 00:00:43;;;;;;;11.35;6.38;;;;;;;;;;5005913;28;20917;-58
2023/04/05 00:03:09;;;;;;;10.40;6.15;;;;;;;;;;5012004;28;20420;-60
2023/04/05 00:05:36;;;;;;;11.18;5.95;;;;;;;;;;5013186;28;20132;-58
2023/04/05 00:08:02;;;;;;;16.95;7.57;;;;;;;;;;5014556;28;20049;-58
2023/04/05 00:10:29;;;;;;;10.63;6.57;;;;;;;;;;5009938;28;20043;-59
2023/04/05 00:12:56;;;;;;;13.50;7.25;;;;;;;;;;5020116;28;20100;-58
2023/04/05 00:15:22;;;;;;;14.98;7.97;;;;;;;;;;5008225;28;20058;-59
2023/04/05 00:17:49;;;;;;;13.45;7.75;;;;;;;;;;5013190;28;20507;-58
2023/04/05 00:20:15;;;;;;;12.45;6.63;;;;;;;;;;5011364;28;20050;-58
2023/04/05 00:22:45;;;;;;;12.77;7.00;;;;;;;;;;5008579;28;20089;-58
2023/04/05 00:25:12;;;;;;;12.80;6.75;;;;;;;;;;5008594;28;20056;-58
2023/04/05 00:27:38;;;;;;;11.93;6.70;;;;;;;;;;5012965;28;20574;-58
2023/04/05 00:30:05;;;;;;;12.68;7.05;;;;;;;;;;5023366;28;20042;-58
2023/04/05 00:32:31;;;;;;;13.88;7.30;;;;;;;;;;5027155;28;20128;-58
2023/04/05 00:34:57;;;;;;;15.27;7.50;;;;;;;;;;5010576;28;20141;-59
2023/04/05 00:37:24;;;;;;;11.85;7.13;;;;;;;;;;5012754;28;20536;-58
2023/04/05 00:39:50;;;;;;;16.65;7.38;;;;;;;;;;5012220;28;20052;-58
2023/04/05 00:42:16;;;;;;;11.23;6.97;;;;;;;;;;5013453;28;20053;-58
2023/04/05 00:44:42;;;;;;;13.05;6.75;;;;;;;;;;5014337;28;20540;-58
2023/04/05 00:47:08;;;;;;;12.93;7.03;;;;;;;;;;5012012;28;20093;-58
2023/04/05 00:49:35;;;;;;;12.45;6.88;;;;;;;;;;5011902;28;20042;-58
2023/04/05 00:52:02;;;;;;;13.25;7.35;;;;;;;;;;5014401;28;20631;-59
2023/04/05 00:54:29;;;;;;;12.60;8.27;;;;;;;;;;5008709;28;20743;-58
2023/04/05 00:56:56;;;;;;;14.02;6.90;;;;;;;;;;5008826;28;20046;-58
2023/04/05 00:59:22;;;;;;;11.32;6.80;;;;;;;;;;5010476;28;20042;-58
2023/04/05 01:01:56;;;;;;;13.15;7.03;;;;;;;;;;5007585;28;20113;-59
2023/04/05 01:04:26;;;;;;;14.15;7.75;;;;;;;;;;5011399;28;20645;-58
2023/04/05 01:07:15;;;;;;;12.98;7.40;;;;;;;;;;5011668;28;21240;-59
2023/04/05 01:09:58;;;;;;;11.20;7.88;;;;;;;;;;5009330;28;20074;-58
2023/04/05 01:12:31;;;;;;;14.63;7.13;;;;;;;;;;5007486;28;20042;-58
2023/04/05 01:14:57;;;;;;;12.88;8.18;;;;;;;;;;5013333;28;20595;-59
2023/04/05 01:17:27;;;;;;;11.00;7.32;;;;;;;;;;5010401;28;20575;-58
2023/04/05 01:19:57;;;;;;;12.63;7.22;;;;;;;;;;5013997;28;20058;-58
2023/04/05 01:22:42;;;;;;;14.57;7.75;;;;;;;;;;5012215;28;20050;-58
2023/04/05 01:25:09;;;;;;;13.77;8.27;;;;;;;;;;5008307;28;20747;-58
2023/04/05 01:27:54;;;;;;;10.05;7.28;;;;;;;;;;5011369;28;20049;-57
2023/04/05 01:30:22;;;;;;;14.55;8.48;;;;;;;;;;5008000;28;20124;-58
2023/04/05 01:33:08;;;;;;;13.77;8.23;;;;;;;;;;5001579;28;20064;-59
2023/04/05 01:35:38;;;;;;;11.07;7.47;;;;;;;;;;5006882;28;20481;-58
2023/04/05 01:38:06;;;;;;;13.00;6.72;;;;;;;;;;5011623;28;20049;-58
2023/04/05 01:40:34;;;;;;;13.65;7.65;;;;;;;;;;5009283;28;20034;-58
2023/04/05 01:43:02;;;;;;;16.58;8.73;;;;;;;;;;5006502;28;20512;-58
2023/04/05 01:45:28;;;;;;;13.07;7.18;;;;;;;;;;5005949;28;20119;-58
2023/04/05 01:47:54;;;;;;;16.30;8.20;;;;;;;;;;5008231;28;20078;-58
2023/04/05 01:50:20;;;;;;;14.13;8.73;;;;;;;;;;5008844;28;20052;-59
2023/04/05 01:52:46;;;;;;;14.48;8.40;;;;;;;;;;5012047;28;20092;-59
2023/04/05 01:55:12;;;;;;;15.32;7.68;;;;;;;;;;5003226;28;20104;-58
2023/04/05 01:57:38;;;;;;;12.63;7.50;;;;;;;;;;5008672;28;20046;-58
2023/04/05 02:00:05;;;;;;;13.80;7.93;;;;;;;;;;5011272;28;20061;-58
2023/04/05 02:02:31;;;;;;;12.75;6.53;;;;;;;;;;5007370;28;20579;-58
2023/04/05 02:04:57;;;;;;;16.50;8.57;;;;;;;;;;5010306;28;20065;-59
2023/04/05 02:07:24;;;;;;;12.48;7.50;;;;;;;;;;5012131;28;20046;-59
2023/04/05 02:09:50;;;;;;;14.40;8.27;;;;;;;;;;5010719;28;20049;-58
2023/04/05 02:12:16;;;;;;;13.57;8.38;;;;;;;;;;5010337;28;20049;-58
2023/04/05 02:14:42;;;;;;;14.13;9.75;;;;;;;;;;5009534;28;20060;-58
2023/04/05 02:17:08;;;;;;;18.20;8.70;;;;;;;;;;5008261;28;20061;-59
2023/04/05 02:19:45;;;;;;;19.75;9.25;;;;;;;;;;5009086;28;20049;-59
2023/04/05 02:22:12;;;;;;;14.82;8.18;;;;;;;;;;5008557;28;20038;-58
2023/04/05 02:24:38;;;;;;;17.00;8.68;;;;;;;;;;5008212;28;20038;-58
2023/04/05 02:27:04;;;;;;;17.00;9.57;;;;;;;;;;5008620;28;20056;-58
2023/04/05 02:29:30;;;;;;;15.00;8.43;;;;;;;;;;5008749;28;20038;-58
2023/04/05 02:31:56;;;;;;;13.18;7.95;;;;;;;;;;5006600;28;20047;-58
2023/04/05 02:34:23;;;;;;;19.33;9.27;;;;;;;;;;5008132;28;20042;-58
2023/04/05 02:36:52;;;;;;;18.77;9.23;;;;;;;;;;5008770;28;20169;-58
2023/04/05 02:39:18;;;;;;;16.30;9.40;;;;;;;;;;5004597;28;20424;-58
2023/04/05 02:41:44;;;;;;;16.90;8.85;;;;;;;;;;5006478;28;20125;-59
2023/04/05 02:44:10;;;;;;;14.43;9.15;;;;;;;;;;5006323;28;20725;-58
2023/04/05 02:46:36;;;;;;;14.35;8.40;;;;;;;;;;5008750;28;20046;-59
2023/04/05 02:49:02;;;;;;;13.70;8.43;;;;;;;;;;5010739;28;21212;-58
2023/04/05 02:51:28;;;;;;;15.27;8.45;;;;;;;;;;5005715;28;20046;-58
2023/04/05 02:53:55;;;;;;;16.70;8.05;;;;;;;;;;5011171;28;20132;-59
2023/04/05 02:56:21;;;;;;;16.42;9.32;;;;;;;;;;5008385;28;20037;-59
2023/04/05 02:58:50;;;;;;;15.40;8.25;;;;;;;;;;5005114;28;20038;-58
2023/04/05 03:01:17;;;;;;;11.98;8.07;;;;;;;;;;5024538;28;20508;-58
2023/04/05 03:03:43;;;;;;;18.42;8.07;;;;;;;;;;5004341;28;20153;-59
2023/04/05 03:06:09;;;;;;;17.25;8.07;;;;;;;;;;5007476;28;20135;-58
2023/04/05 03:08:42;;;;;;;14.02;8.20;;;;;;;;;;5001994;28;20460;-58
2023/04/05 03:11:09;;;;;;;15.13;7.75;;;;;;;;;;5005771;28;20094;-57
2023/04/05 03:13:35;;;;;;;16.05;8.18;;;;;;;;;;5008990;28;20127;-58
2023/04/05 03:16:02;;;;;;;11.00;6.72;;;;;;;;;;5008480;28;20046;-58
2023/04/05 03:18:28;;;;;;;16.52;7.70;;;;;;;;;;5008878;28;20042;-58
2023/04/05 03:20:58;;;;;;;11.65;7.63;;;;;;;;;;5006567;28;20061;-58
2023/04/05 03:23:28;;;;;;;14.05;7.03;;;;;;;;;;5002451;28;20222;-58
2023/04/05 03:25:57;;;;;;;15.63;8.40;;;;;;;;;;5003301;28;20046;-58
2023/04/05 03:28:24;;;;;;;13.10;8.13;;;;;;;;;;5006982;28;20052;-58
2023/04/05 03:30:50;;;;;;;15.20;7.68;;;;;;;;;;5008656;28;20125;-58
2023/04/05 03:33:16;;;;;;;16.42;7.75;;;;;;;;;;5008597;28;20125;-58
2023/04/05 03:35:42;;;;;;;10.93;7.32;;;;;;;;;;5008010;28;20093;-57
2023/04/05 03:38:08;;;;;;;11.60;8.55;;;;;;;;;;5003721;28;20049;-58
2023/04/05 03:40:34;;;;;;;14.73;8.15;;;;;;;;;;5005917;28;20514;-58
2023/04/05 03:43:01;;;;;;;12.25;7.53;;;;;;;;;;5002969;28;21003;-58
2023/04/05 03:45:28;;;;;;;15.35;8.05;;;;;;;;;;5005153;28;20042;-58
2023/04/05 03:47:54;;;;;;;14.68;8.90;;;;;;;;;;5007345;28;20073;-58
2023/04/05 03:50:20;;;;;;;13.10;6.90;;;;;;;;;;5006317;28;20140;-58
2023/04/05 03:52:47;;;;;;;14.85;7.90;;;;;;;;;;5005674;28;20046;-58
2023/04/05 03:55:15;;;;;;;12.15;7.25;;;;;;;;;;5019537;28;20049;-58
2023/04/05 03:57:41;;;;;;;12.82;8.10;;;;;;;;;;5002796;28;20119;-58
2023/04/05 04:00:16;;;;;;;12.77;8.13;;;;;;;;;;5000964;28;20042;-58
2023/04/05 04:02:43;;;;;;;13.48;6.80;;;;;;;;;;5008195;28;20718;-58
2023/04/05 04:05:09;;;;;;;12.68;7.88;;;;;;;;;;5009005;28;20052;-58
2023/04/05 04:07:35;;;;;;;16.63;8.93;;;;;;;;;;5008841;28;20050;-58
2023/04/05 04:10:02;;;;;;;12.52;7.88;;;;;;;;;;5008230;28;20046;-58
2023/04/05 04:12:28;;;;;;;9.52;6.63;;;;;;;;;;4999485;28;20043;-58
2023/04/05 04:14:54;;;;;;;14.73;7.82;;;;;;;;;;5009001;28;20033;-57
2023/04/05 04:17:27;;;;;;;16.30;8.75;;;;;;;;;;5003687;28;20046;-58
2023/04/05 04:19:53;;;;;;;15.35;8.57;;;;;;;;;;5007704;28;20058;-58
2023/04/05 04:22:19;;;;;;;14.27;7.93;;;;;;;;;;5007837;28;20046;-58
2023/04/05 04:24:52;;;;;;;17.70;8.27;;;;;;;;;;5003407;28;20053;-57
2023/04/05 04:27:19;;;;;;;16.88;7.68;;;;;;;;;;5004847;28;20033;-57
2023/04/05 04:29:46;;;;;;;20.05;8.30;;;;;;;;;;5007681;28;20093;-57
2023/04/05 04:32:15;;;;;;;18.02;9.00;;;;;;;;;;5009701;28;20049;-58
2023/04/05 04:34:43;;;;;;;22.70;9.38;;;;;;;;;;5008344;28;20041;-57
2023/04/05 04:37:16;;;;;;;15.38;9.25;;;;;;;;;;5009842;28;20040;-58
2023/04/05 04:39:43;;;;;;;16.48;7.80;;;;;;;;;;5011159;28;20109;-58
2023/04/05 04:42:10;;;;;;;15.93;8.02;;;;;;;;;;5004578;28;20045;-57
2023/04/05 04:44:36;;;;;;;13.55;7.28;;;;;;;;;;5002735;28;20463;-57
2023/04/05 04:47:03;;;;;;;14.93;8.60;;;;;;;;;;5006647;28;20047;-58
2023/04/05 04:49:31;;;;;;;19.38;6.93;;;;;;;;;;5013120;28;20744;-58
2023/04/05 04:51:58;;;;;;;12.32;7.75;;;;;;;;;;5011056;28;20054;-57
2023/04/05 04:54:24;;;;;;;15.57;7.60;;;;;;;;;;5007160;28;20689;-58
2023/04/05 04:56:50;;;;;;;18.85;10.57;;;;;;;;;;5008863;28;20053;-57
2023/04/05 04:59:17;;;;;;;13.82;7.65;;;;;;;;;;5010286;28;20528;-57
2023/04/05 05:01:46;;;;;;;18.00;8.75;;;;;;;;;;5010102;28;20065;-57
2023/04/05 05:04:12;;;;;;;22.17;8.43;;;;;;;;;;5004358;28;20049;-57
2023/04/05 05:06:38;;;;;;;13.68;7.93;;;;;;;;;;5011050;28;20158;-57
2023/04/05 05:09:05;;;;;;;14.13;8.82;;;;;;;;;;5027138;28;20084;-57
2023/04/05 05:11:31;;;;;;;13.40;7.88;;;;;;;;;;5008884;28;20056;-57
2023/04/05 05:13:58;;;;;;;14.52;7.63;;;;;;;;;;5007017;28;20128;-58
2023/04/05 05:16:25;;;;;;;17.00;7.65;;;;;;;;;;5009797;28;20106;-57
2023/04/05 05:18:51;;;;;;;18.00;8.23;;;;;;;;;;5012436;28;20046;-58
2023/04/05 05:21:19;;;;;;;16.98;8.43;;;;;;;;;;5006514;28;20102;-57
2023/04/05 05:23:46;;;;;;;19.15;10.48;;;;;;;;;;5004355;28;20056;-58
2023/04/05 05:26:13;;;;;;;14.48;8.20;;;;;;;;;;5010613;28;20049;-57
2023/04/05 05:28:39;;;;;;;12.07;7.85;;;;;;;;;;5010172;28;20691;-57
2023/04/05 05:31:05;;;;;;;14.25;8.27;;;;;;;;;;5008757;28;20910;-59
2023/04/05 05:33:31;;;;;;;15.65;7.68;;;;;;;;;;5003717;28;20042;-57
2023/04/05 05:35:57;;;;;;;15.48;7.68;;;;;;;;;;5010582;28;20050;-58
2023/04/05 05:38:24;;;;;;;14.30;7.35;;;;;;;;;;5004524;28;20038;-57
2023/04/05 05:40:56;;;;;;;14.13;9.25;;;;;;;;;;5006767;28;21011;-57
2023/04/05 05:43:22;;;;;;;18.10;8.10;;;;;;;;;;5005167;28;20046;-57
2023/04/05 05:45:49;;;;;;;16.05;8.80;;;;;;;;;;5006847;28;20049;-58
2023/04/05 05:48:15;;;;;;;13.75;8.88;;;;;;;;;;5003026;28;20578;-58
2023/04/05 05:50:41;;;;;;;18.13;7.90;;;;;;;;;;5001176;28;20038;-58
2023/04/05 05:53:07;;;;;;;18.83;8.57;;;;;;;;;;5009389;28;20041;-58
2023/04/05 05:55:33;;;;;;;20.35;8.15;;;;;;;;;;5038503;28;20552;-58
2023/04/05 05:57:59;;;;;;;15.43;7.97;;;;;;;;;;5008502;28;20535;-58
2023/04/05 06:00:26;;;;;;;18.25;7.85;;;;;;;;;;5027469;28;20046;-57
2023/04/05 06:02:52;;;;;;;16.90;9.68;;;;;;;;;;5011689;28;20074;-57
2023/04/05 06:05:18;;;;;;;14.57;9.18;;;;;;;;;;5009024;28;20157;-58
2023/04/05 06:07:45;;;;;;;18.00;9.27;;;;;;;;;;5011561;28;20158;-58
2023/04/05 06:10:12;;;;;;;18.70;8.10;;;;;;;;;;5008571;28;20108;-58
2023/04/05 06:12:38;;;;;;;14.98;8.40;;;;;;;;;;5009967;28;20061;-58
2023/04/05 06:15:04;;;;;;;15.38;8.50;;;;;;;;;;5003298;28;20578;-58
2023/04/05 06:17:30;;;;;;;12.35;7.95;;;;;;;;;;5000829;28;20046;-57
2023/04/05 06:19:56;;;;;;;21.23;7.40;;;;;;;;;;5009709;28;20515;-57
2023/04/05 06:22:23;;;;;;;13.70;9.18;;;;;;;;;;5010011;28;20045;-57
2023/04/05 06:24:49;;;;;;;15.60;8.68;;;;;;;;;;5010083;28;20049;-58
2023/04/05 06:27:15;;;;;;;14.95;8.52;;;;;;;;;;5006742;28;20108;-58
2023/04/05 06:29:41;;;;;;;13.43;8.18;;;;;;;;;;5007832;28;20123;-58
2023/04/05 06:32:08;;;;;;;24.85;10.32;;;;;;;;;;5038909;28;20124;-57
2023/04/05 06:34:34;;;;;;;20.58;9.65;;;;;;;;;;5039070;28;20061;-58
2023/04/05 06:37:00;;;;;;;26.45;11.05;;;;;;;;;;5006602;28;20957;-58
2023/04/05 06:39:26;;;;;;;15.73;8.73;;;;;;;;;;5004739;28;20046;-58
2023/04/05 06:41:52;;;;;;;20.85;9.52;;;;;;;;;;5010054;28;20056;-57
2023/04/05 06:44:18;;;;;;;15.35;8.68;;;;;;;;;;5007474;28;20152;-57
2023/04/05 06:46:45;;;;;;;18.75;9.57;;;;;;;;;;4998792;28;20041;-57
2023/04/05 06:49:11;;;;;;;18.33;8.95;;;;;;;;;;5005391;28;20428;-58
2023/04/05 06:51:37;;;;;;;18.98;9.75;;;;;;;;;;5001752;28;20038;-58
2023/04/05 06:54:03;;;;;;;17.48;9.38;;;;;;;;;;4998167;28;20097;-58
2023/04/05 06:56:29;;;;;;;20.85;10.80;;;;;;;;;;5010581;28;20042;-58
2023/04/05 06:58:58;;;;;;;18.05;10.10;;;;;;;;;;5011664;28;20702;-58
2023/04/05 07:01:25;;;;;;;22.08;10.32;;;;;;;;;;5010826;28;20575;-58
2023/04/05 07:03:51;;;;;;;20.40;11.00;;;;;;;;;;5004750;28;20049;-58
2023/04/05 07:06:17;;;;;;;18.08;10.93;;;;;;;;;;5012256;28;20045;-58
2023/04/05 07:08:43;;;;;;;21.42;9.55;;;;;;;;;;5012193;28;20553;-58
2023/04/05 07:11:09;;;;;;;18.25;9.30;;;;;;;;;;5011289;28;20050;-58
2023/04/05 07:13:35;;;;;;;22.33;10.60;;;;;;;;;;5011819;28;20103;-57
2023/04/05 07:16:02;;;;;;;21.60;9.65;;;;;;;;;;5012341;28;20054;-57
2023/04/05 07:18:28;;;;;;;15.65;9.10;;;;;;;;;;5013737;28;20128;-56
2023/04/05 07:20:59;;;;;;;20.50;8.95;;;;;;;;;;5011758;28;20054;-57
2023/04/05 07:23:26;;;;;;;13.65;7.25;;;;;;;;;;5009642;28;20053;-57
2023/04/05 07:25:53;;;;;;;18.95;9.48;;;;;;;;;;5007207;28;20030;-57
2023/04/05 07:28:20;;;;;;;16.42;8.48;;;;;;;;;;5039521;28;20050;-57
2023/04/05 07:30:46;;;;;;;24.23;7.85;;;;;;;;;;5006605;28;20085;-56
2023/04/05 07:33:12;;;;;;;15.45;8.80;;;;;;;;;;5009406;28;20030;-57
2023/04/05 07:35:38;;;;;;;9.23;5.35;;;;;;;;;;5013548;28;20046;-56
2023/04/05 07:38:04;;;;;;;15.10;8.13;;;;;;;;;;5026107;28;20054;-57
2023/04/05 07:40:30;;;;;;;16.23;9.80;;;;;;;;;;5011360;28;20034;-56
2023/04/05 07:42:56;;;;;;;16.60;8.45;;;;;;;;;;5010842;28;20042;-57
2023/04/05 07:45:22;;;;;;;16.50;8.23;;;;;;;;;;5011998;28;20182;-57
2023/04/05 07:47:49;;;;;;;14.98;8.32;;;;;;;;;;5012625;28;20057;-57
2023/04/05 07:50:15;;;;;;;15.88;9.27;;;;;;;;;;5027545;28;20604;-57
2023/04/05 07:52:41;;;;;;;19.42;8.48;;;;;;;;;;5013230;28;20042;-57
2023/04/05 07:55:08;;;;;;;15.98;7.95;;;;;;;;;;5011812;28;20061;-57
2023/04/05 07:57:35;;;;;;;15.48;8.82;;;;;;;;;;5011514;28;20538;-57
2023/04/05 08:00:01;;;;;;;17.90;8.73;;;;;;;;;;5011774;28;20069;-57
2023/04/05 08:02:27;;;;;;;15.10;7.85;;;;;;;;;;5039521;28;20038;-57
2023/04/05 08:04:53;;;;;;;20.80;9.98;;;;;;;;;;5013815;28;20045;-57
2023/04/05 08:07:19;;;;;;;18.27;9.07;;;;;;;;;;5014808;28;20046;-57
2023/04/05 08:09:45;;;;;;;15.25;7.95;;;;;;;;;;5014126;28;20065;-57
2023/04/05 08:12:11;;;;;;;18.10;8.38;;;;;;;;;;5016404;28;20041;-57
2023/04/05 08:14:37;;;;;;;14.43;7.03;;;;;;;;;;5014262;28;20042;-57
2023/04/05 08:17:04;;;;;;;26.08;8.60;;;;;;;;;;5012741;28;20414;-57
2023/04/05 08:19:32;;;;;;;15.10;8.95;;;;;;;;;;5047035;28;20156;-57
2023/04/05 08:21:58;;;;;;;15.65;8.05;;;;;;;;;;5016887;28;20038;-57
2023/04/05 08:24:24;;;;;;;15.82;7.78;;;;;;;;;;5016628;28;20053;-57
2023/04/05 08:26:50;;;;;;;12.07;7.03;;;;;;;;;;5013911;28;20058;-57
2023/04/05 08:29:16;;;;;;;17.25;7.93;;;;;;;;;;5010240;28;20080;-57
2023/04/05 08:31:42;;;;;;;22.35;8.85;;;;;;;;;;5015878;28;20044;-57
2023/04/05 08:34:08;;;;;;;16.73;8.18;;;;;;;;;;5014516;28;20133;-57
2023/04/05 08:36:34;;;;;;;16.25;7.65;;;;;;;;;;5009301;28;20093;-57
2023/04/05 08:39:03;;;;;;;10.02;6.78;;;;;;;;;;5011701;28;20038;-57
2023/04/05 08:41:37;;;;;;;17.95;8.20;;;;;;;;;;5015069;28;20045;-57
2023/04/05 08:44:04;;;;;;;15.98;6.90;;;;;;;;;;5015208;28;20096;-57
2023/04/05 08:46:33;;;;;;;12.18;6.90;;;;;;;;;;5015358;28;20069;-57
2023/04/05 08:49:00;;;;;;;14.23;7.53;;;;;;;;;;5013728;28;20882;-57
2023/04/05 08:51:27;;;;;;;14.90;7.80;;;;;;;;;;5014692;28;20046;-57
2023/04/05 08:53:53;;;;;;;12.80;7.80;;;;;;;;;;5013096;28;20116;-57
2023/04/05 08:56:29;;;;;;;12.90;6.63;;;;;;;;;;5013976;28;20076;-57
2023/04/05 08:58:55;;;;;;;14.13;7.13;;;;;;;;;;5016726;28;20072;-57
2023/04/05 09:01:21;;;;;;;17.25;6.00;;;;;;;;;;5014150;28;20061;-57
2023/04/05 09:03:49;;;;;;;13.25;6.00;;;;;;;;;;5016923;28;20479;-57
2023/04/05 09:06:16;;;;;;;11.15;6.85;;;;;;;;;;5020626;28;20046;-57
2023/04/05 09:08:42;;;;;;;12.20;6.25;;;;;;;;;;5013820;28;20113;-57
2023/04/05 09:11:08;;;;;;;13.50;6.43;;;;;;;;;;5010894;28;20049;-57
2023/04/05 09:13:34;;;;;;;14.90;7.00;;;;;;;;;;5029513;28;20053;-58
2023/04/05 09:16:01;;;;;;;11.82;5.72;;;;;;;;;;5014237;28;20046;-57
2023/04/05 09:18:27;;;;;;;11.25;5.78;;;;;;;;;;5015482;28;20038;-57
2023/04/05 09:21:02;;;;;;;12.65;5.82;;;;;;;;;;5009853;28;20053;-57
2023/04/05 09:23:28;;;;;;;8.07;4.47;;;;;;;;;;5014398;28;20042;-57
2023/04/05 09:25:54;;;;;;;10.90;6.18;;;;;;;;;;5014241;28;20578;-57
2023/04/05 09:28:20;;;;;;;9.70;4.90;;;;;;;;;;5014322;28;20038;-57
2023/04/05 09:30:47;;;;;;;9.05;5.20;;;;;;;;;;5015079;28;20092;-58
2023/04/05 09:33:15;;;;;;;8.40;5.38;;;;;;;;;;5015650;28;20065;-58
2023/04/05 09:35:41;;;;;;;11.25;5.70;;;;;;;;;;5015016;28;20046;-58
2023/04/05 09:38:07;;;;;;;8.88;5.90;;;;;;;;;;5014121;28;20048;-58
2023/04/05 09:40:41;;;;;;;10.43;5.35;;;;;;;;;;5014131;28;20524;-57
2023/04/05 09:43:08;;;;;;;12.57;7.80;;;;;;;;;;5015416;28;20046;-58
2023/04/05 09:45:41;;;;;;;8.63;5.40;;;;;;;;;;5030982;28;20050;-57
2023/04/05 09:48:08;;;;;;;9.90;5.45;;;;;;;;;;5014896;28;20037;-58
2023/04/05 09:50:34;;;;;;;9.43;4.93;;;;;;;;;;5014202;28;20042;-58
2023/04/05 09:53:14;;;;;;;10.38;5.85;;;;;;;;;;5014066;28;20516;-58
2023/04/05 09:55:41;;;;;;;11.15;6.00;;;;;;;;;;5015645;28;20050;-57
2023/04/05 09:58:11;;;;;;;9.90;6.18;;;;;;;;;;5015487;28;20052;-58
2023/04/05 10:00:38;;;;;;;14.15;6.63;;;;;;;;;;5014268;28;20121;-58
2023/04/05 10:03:04;;;;;;;11.60;6.72;;;;;;;;;;5013948;28;20097;-58
2023/04/05 10:05:32;;;;;;;11.18;6.65;;;;;;;;;;5006031;28;20133;-57
2023/04/05 10:07:59;;;;;;;16.38;6.22;;;;;;;;;;5010084;28;20496;-59
2023/04/05 10:10:25;;;;;;;8.85;5.90;;;;;;;;;;5011548;28;20073;-59
2023/04/05 10:12:51;;;;;;;13.82;7.05;;;;;;;;;;5008937;28;20090;-58
2023/04/05 10:15:18;;;;;;;15.82;6.57;;;;;;;;;;5014226;28;20050;-58
2023/04/05 10:17:48;;;;;;;14.70;6.55;;;;;;;;;;5014683;28;20447;-57
2023/04/05 10:20:21;;;;;;;10.80;5.88;;;;;;;;;;5014887;28;20054;-58
2023/04/05 10:23:00;;;;;;;13.93;6.13;;;;;;;;;;5015578;28;20070;-58
2023/04/05 10:25:29;;;;;;;13.57;6.15;;;;;;;;;;5005304;28;20046;-58
2023/04/05 10:27:56;;;;;;;9.93;6.55;;;;;;;;;;5014536;28;20053;-58
2023/04/05 10:30:24;;;;;;;11.45;6.43;;;;;;;;;;5014139;28;20117;-58
2023/04/05 10:33:02;;;;;;;14.57;6.82;;;;;;;;;;5015076;28;20066;-58
2023/04/05 10:35:35;;;;;;;17.20;7.15;;;;;;;;;;5013599;28;20472;-58
2023/04/05 10:38:14;;;;;;;12.65;6.45;;;;;;;;;;5014661;28;20046;-58
2023/04/05 10:40:43;;;;;;;12.18;6.82;;;;;;;;;;5042170;28;20061;-58
2023/04/05 10:43:15;;;;;;;12.13;6.03;;;;;;;;;;5009975;28;20445;-58
2023/04/05 10:45:43;;;;;;;10.65;6.63;;;;;;;;;;5011659;28;20129;-58
2023/04/05 10:48:18;;;;;;;10.15;5.88;;;;;;;;;;5012552;28;20045;-58
2023/04/05 10:50:47;;;;;;;6.82;4.20;;;;;;;;;;5012239;28;20123;-57
2023/04/05 10:53:13;;;;;;;10.70;5.57;;;;;;;;;;5028059;28;20534;-58
2023/04/05 10:55:40;;;;;;;14.75;6.20;;;;;;;;;;5012086;28;20072;-58
2023/04/05 10:58:06;;;;;;;11.88;5.60;;;;;;;;;;5044963;28;20195;-57
2023/04/05 11:00:32;;;;;;;10.15;5.50;;;;;;;;;;5011633;28;20025;-57
2023/04/05 11:02:59;;;;;;;14.30;6.13;;;;;;;;;;5012331;28;20214;-57
2023/04/05 11:05:34;;;;;;;11.07;5.78;;;;;;;;;;5012932;28;20543;-57
2023/04/05 11:08:07;;;;;;;8.82;5.15;;;;;;;;;;5013632;28;20046;-57
2023/04/05 11:10:35;;;;;;;10.30;5.82;;;;;;;;;;5014412;28;20038;-57
2023/04/05 11:13:01;;;;;;;13.05;5.93;;;;;;;;;;5010962;28;20046;-57
2023/04/05 11:15:27;;;;;;;9.85;4.60;;;;;;;;;;5010037;28;20492;-57
2023/04/05 11:18:05;;;;;;;9.90;5.45;;;;;;;;;;5009662;28;20045;-58
2023/04/05 11:20:41;;;;;;;5.68;4.28;;;;;;;;;;5006568;28;20053;-57
2023/04/05 11:23:07;;;;;;;10.40;5.50;;;;;;;;;;5009011;28;20097;-58
2023/04/05 11:25:37;;;;;;;8.52;4.88;;;;;;;;;;5010383;28;20049;-57
2023/04/05 11:28:04;;;;;;;7.60;4.05;;;;;;;;;;5013358;28;20049;-57
2023/04/05 11:30:52;;;;;;;7.93;3.63;;;;;;;;;;5012034;28;20129;-58
2023/04/05 11:33:37;;;;;;;9.95;4.88;;;;;;;;;;5014071;28;20105;-57
2023/04/05 11:36:03;;;;;;;8.40;4.50;;;;;;;;;;5012609;28;20050;-57
2023/04/05 11:38:29;;;;;;;7.55;4.47;;;;;;;;;;5012735;28;20539;-57
2023/04/05 11:41:25;;;;;;;9.40;5.13;;;;;;;;;;5013280;28;20121;-57
2023/04/05 11:43:53;;;;;;;8.75;5.25;;;;;;;;;;5012703;28;20108;-57
2023/04/05 11:46:20;;;;;;;9.38;4.93;;;;;;;;;;5013115;28;20532;-58
2023/04/05 11:48:50;;;;;;;10.90;5.32;;;;;;;;;;5016599;28;20046;-57
2023/04/05 11:51:16;;;;;;;8.38;4.15;;;;;;;;;;5014357;28;20065;-57
2023/04/05 11:53:49;;;;;;;10.52;5.60;;;;;;;;;;5014117;28;20042;-58
2023/04/05 11:56:15;;;;;;;9.52;4.95;;;;;;;;;;5013585;28;20501;-57
2023/04/05 11:58:42;;;;;;;10.65;5.03;;;;;;;;;;5016141;28;20080;-59
2023/04/05 12:01:08;;;;;;;10.15;5.32;;;;;;;;;;5015820;28;20038;-57
2023/04/05 12:03:36;;;;;;;9.15;4.95;;;;;;;;;;5017770;28;20111;-57
2023/04/05 12:06:03;;;;;;;9.27;4.45;;;;;;;;;;5014430;28;20045;-57
2023/04/05 12:08:48;;;;;;;8.35;4.63;;;;;;;;;;5014002;28;20553;-58
2023/04/05 12:11:15;;;;;;;11.32;4.03;;;;;;;;;;5013169;28;20046;-57
2023/04/05 12:13:41;;;;;;;9.82;5.22;;;;;;;;;;5017971;28;20042;-57
2023/04/05 12:16:08;;;;;;;8.25;5.00;;;;;;;;;;5028580;28;20540;-57
2023/04/05 12:18:37;;;;;;;9.05;4.30;;;;;;;;;;5015022;28;20046;-57
2023/04/05 12:21:05;;;;;;;7.57;4.82;;;;;;;;;;5012549;28;21865;-57
2023/04/05 12:23:31;;;;;;;8.38;4.13;;;;;;;;;;5016225;28;20057;-57
2023/04/05 12:25:57;;;;;;;7.30;4.28;;;;;;;;;;5011844;28;20128;-57
2023/04/05 12:28:23;;;;;;;8.75;5.00;;;;;;;;;;5015643;28;20058;-57
2023/04/05 12:30:53;;;;;;;7.88;3.92;;;;;;;;;;5014589;28;20053;-57
2023/04/05 12:33:29;;;;;;;10.77;5.38;;;;;;;;;;5014738;28;20045;-57
2023/04/05 12:35:55;;;;;;;15.68;4.70;;;;;;;;;;5015114;28;20048;-57
2023/04/05 12:38:25;;;;;;;8.45;5.53;;;;;;;;;;5015442;28;20559;-57
2023/04/05 12:40:52;;;;;;;9.63;4.63;;;;;;;;;;5012471;28;21268;-57
2023/04/05 12:43:19;;;;;;;10.60;5.32;;;;;;;;;;5015010;28;20041;-57
2023/04/05 12:45:45;;;;;;;8.18;4.60;;;;;;;;;;5015317;28;20052;-57
2023/04/05 12:48:12;;;;;;;9.95;4.80;;;;;;;;;;5014770;28;20034;-57
2023/04/05 12:50:43;;;;;;;9.85;4.82;;;;;;;;;;5012613;28;20041;-57
2023/04/05 12:53:16;;;;;;;7.93;4.38;;;;;;;;;;5015113;28;20038;-57
2023/04/05 12:55:44;;;;;;;10.02;5.30;;;;;;;;;;5015167;28;20097;-57
2023/04/05 12:58:10;;;;;;;8.02;4.32;;;;;;;;;;5016550;28;20065;-57
2023/04/05 13:00:37;;;;;;;7.38;3.80;;;;;;;;;;5013800;28;20045;-57
2023/04/05 13:03:03;;;;;;;11.32;4.68;;;;;;;;;;5013916;28;20070;-58
2023/04/05 13:05:30;;;;;;;8.52;3.70;;;;;;;;;;5013178;28;20049;-58
2023/04/05 13:07:56;;;;;;;8.82;4.00;;;;;;;;;;5014828;28;20646;-57
2023/04/05 13:10:23;;;;;;;9.02;3.55;;;;;;;;;;5012468;28;20410;-57
2023/04/05 13:12:50;;;;;;;10.80;4.25;;;;;;;;;;5012302;28;20089;-57
2023/04/05 13:15:16;;;;;;;11.25;4.55;;;;;;;;;;5007931;28;20058;-57
2023/04/05 13:17:44;;;;;;;9.02;4.15;;;;;;;;;;5014188;28;20108;-57
2023/04/05 13:20:12;;;;;;;9.45;4.90;;;;;;;;;;5014740;28;20144;-57
2023/04/05 13:22:39;;;;;;;6.95;3.70;;;;;;;;;;5013936;28;20047;-57
2023/04/05 13:25:05;;;;;;;8.48;4.90;;;;;;;;;;5014907;28;20113;-57
2023/04/05 13:27:31;;;;;;;6.85;3.70;;;;;;;;;;5012253;28;20039;-58
2023/04/05 13:29:57;;;;;;;9.95;4.32;;;;;;;;;;5012386;28;20100;-57
2023/04/05 13:32:24;;;;;;;8.55;4.22;;;;;;;;;;5014195;28;20161;-57
2023/04/05 13:34:50;;;;;;;6.82;3.58;;;;;;;;;;5011507;28;20111;-57
2023/04/05 13:37:16;;;;;;;8.18;4.35;;;;;;;;;;5012905;28;20038;-58
2023/04/05 13:39:42;;;;;;;6.72;3.80;;;;;;;;;;5014154;28;20099;-58
2023/04/05 13:42:08;;;;;;;5.05;3.20;;;;;;;;;;5013332;28;20042;-57
2023/04/05 13:44:35;;;;;;;6.65;3.55;;;;;;;;;;5014285;28;20524;-57
2023/04/05 13:47:01;;;;;;;6.00;3.58;;;;;;;;;;5013251;28;20046;-57
2023/04/05 13:49:27;;;;;;;6.65;3.63;;;;;;;;;;5012190;28;20034;-58
2023/04/05 13:51:53;;;;;;;5.80;3.35;;;;;;;;;;5014603;28;20127;-57
2023/04/05 13:54:19;;;;;;;7.32;3.33;;;;;;;;;;5015196;28;20061;-57
2023/04/05 13:56:45;;;;;;;5.90;3.03;;;;;;;;;;5013640;28;20046;-57
2023/04/05 13:59:15;;;;;;;7.00;3.38;;;;;;;;;;5012148;28;20471;-57
2023/04/05 14:01:42;;;;;;;6.25;3.42;;;;;;;;;;5011377;28;20045;-57
2023/04/05 14:04:09;;;;;;;8.70;3.45;;;;;;;;;;5014567;28;20421;-57
2023/04/05 14:06:35;;;;;;;5.88;3.20;;;;;;;;;;5044489;28;20157;-58
2023/04/05 14:09:01;;;;;;;6.97;2.90;;;;;;;;;;5013316;28;20046;-57
2023/04/05 14:11:27;;;;;;;8.20;3.38;;;;;;;;;;5012969;28;20057;-57
2023/04/05 14:13:53;;;;;;;6.88;3.33;;;;;;;;;;5014703;28;20052;-57
2023/04/05 14:16:19;;;;;;;8.98;3.50;;;;;;;;;;5009147;28;20049;-57
2023/04/05 14:18:45;;;;;;;6.85;3.08;;;;;;;;;;5010096;28;20049;-58
2023/04/05 14:21:11;;;;;;;6.15;2.90;;;;;;;;;;5012530;28;20055;-58
2023/04/05 14:23:37;;;;;;;8.55;2.58;;;;;;;;;;5013619;28;20050;-58
2023/04/05 14:26:04;;;;;;;6.95;2.95;;;;;;;;;;5028848;28;20046;-57
2023/04/05 14:28:30;;;;;;;6.78;2.72;;;;;;;;;;5013155;28;20038;-58
2023/04/05 14:30:58;;;;;;;6.40;2.97;;;;;;;;;;5008698;28;20077;-57
2023/04/05 14:33:25;;;;;;;7.97;3.95;;;;;;;;;;5014421;28;20483;-57
2023/04/05 14:35:51;;;;;;;8.70;3.22;;;;;;;;;;5008677;28;20129;-57